Time;durP1;ratioP1;P1;durP2;ratioP2;P2;SDS_P1;SDS_P2;PMS_P1;PMS_P2;Temp;Humidity;BMP_temperature;BMP_pressure;BME280_temperature;BME280_humidity;BME280_pressure;Samples;Min_cycle;Max_cycle;Signal;HPM_P1;HPM_P2
2022/12/30 00:01:10;;;;;;;20.70;12.98;;;;;;;6.47;74.07;94586.06;1704733;83;21140;-45
2022/12/30 00:03:37;;;;;;;18.70;12.53;;;;;;;6.48;73.91;94587.63;1708015;83;21554;-45
2022/12/30 00:06:05;;;;;;;18.48;12.58;;;;;;;6.47;73.79;94582.75;1697971;83;21590;-44
2022/12/30 00:08:47;;;;;;;22.17;14.18;;;;;;;6.48;73.80;94583.53;1684418;83;21032;-44
2022/12/30 00:11:29;;;;;;;15.77;11.83;;;;;;;6.57;73.80;94581.75;1698901;84;21076;-45
2022/12/30 00:34:05;;;;;;;39.60;23.87;;;;;;;6.44;71.29;94595.12;1526718;91;21077;-44
2022/12/30 00:36:31;;;;;;;63.83;35.40;;;;;;;6.11;71.21;94594.27;1519608;92;21202;-44
2022/12/30 00:38:58;;;;;;;51.83;29.55;;;;;;;5.80;71.79;94597.66;1533430;92;21654;-43
2022/12/30 00:44:10;;;;;;;45.15;24.52;;;;;;;5.44;72.64;94604.33;1537865;92;21688;-45
2022/12/30 00:46:38;;;;;;;56.75;28.75;;;;;;;5.30;73.04;94594.28;1519706;91;21084;-45
2022/12/30 00:57:21;;;;;;;62.25;32.98;;;;;;;5.06;75.48;94607.75;1529210;91;21047;-44
2022/12/30 00:59:47;;;;;;;33.15;19.67;;;;;;;5.08;75.57;94612.20;1521489;93;21100;-44
2022/12/30 01:02:14;;;;;;;30.17;19.15;;;;;;;5.09;75.72;94604.19;1501888;94;21854;-44
2022/12/30 01:04:41;;;;;;;40.90;22.27;;;;;;;5.07;76.07;94607.93;1530921;92;21695;-44
2022/12/30 01:07:08;;;;;;;45.83;25.60;;;;;;;5.08;76.03;94604.02;1530800;91;22147;-44
2022/12/30 01:09:35;;;;;;;45.85;27.10;;;;;;;5.03;76.03;94605.08;1522682;92;21361;-45
2022/12/30 01:12:09;;;;;;;36.50;21.05;;;;;;;5.06;76.38;94618.66;1574914;87;21068;-44
2022/12/30 01:14:49;;;;;;;36.98;23.47;;;;;;;5.12;76.11;94608.81;1663499;83;21135;-44
2022/12/30 01:17:26;;;;;;;33.25;21.70;;;;;;;5.12;76.26;94612.90;1687974;83;21086;-44
2022/12/30 01:19:53;;;;;;;50.80;25.57;;;;;;;5.16;76.62;94605.42;1605492;86;21237;-44
2022/12/30 01:22:21;;;;;;;44.77;25.90;;;;;;;5.20;76.46;94607.52;1655225;84;21095;-45
2022/12/30 01:24:48;;;;;;;41.55;22.25;;;;;;;5.16;76.24;94599.22;1661082;83;21073;-44
2022/12/30 01:27:15;;;;;;;25.43;16.48;;;;;;;5.17;76.57;94601.52;1663488;84;21730;-44
2022/12/30 01:29:42;;;;;;;23.35;15.60;;;;;;;5.25;76.57;94601.58;1667808;84;21164;-45
2022/12/30 01:32:12;;;;;;;26.73;18.67;;;;;;;5.24;76.45;94602.77;1671241;85;21084;-45
2022/12/30 01:34:39;;;;;;;25.97;17.82;;;;;;;5.21;77.09;94594.64;1662052;82;21088;-45
2022/12/30 01:37:06;;;;;;;27.32;18.15;;;;;;;5.21;77.12;94585.88;1659351;83;21061;-45
2022/12/30 01:39:33;;;;;;;29.87;19.23;;;;;;;5.19;77.47;94589.59;1674646;83;21001;-45
2022/12/30 01:42:00;;;;;;;31.68;19.32;;;;;;;5.23;77.57;94593.05;1671160;84;21137;-45
2022/12/30 01:44:49;;;;;;;23.25;16.02;;;;;;;5.24;77.39;94591.25;1668442;84;21314;-45
2022/12/30 01:47:39;;;;;;;22.80;16.17;;;;;;;5.27;77.21;94582.23;1689072;84;21019;-44
2022/12/30 01:50:12;;;;;;;29.52;16.45;;;;;;;5.26;76.97;94590.84;1698465;84;21059;-47
2022/12/30 01:52:50;;;;;;;24.85;16.45;;;;;;;5.21;77.06;94585.09;1689446;84;28334;-45
2022/12/30 01:55:25;;;;;;;23.22;16.87;;;;;;;5.17;76.88;94583.79;1669667;85;21019;-44
2022/12/30 01:57:52;;;;;;;34.03;20.88;;;;;;;5.13;76.49;94584.45;1604170;88;21812;-44
2022/12/30 02:00:21;;;;;;;37.88;22.37;;;;;;;5.06;76.07;94588.67;1607829;87;21667;-44
2022/12/30 02:02:48;;;;;;;35.17;22.00;;;;;;;4.95;76.12;94582.62;1597460;88;21049;-44
2022/12/30 02:05:15;;;;;;;35.03;22.77;;;;;;;4.83;76.16;94585.17;1585927;88;21040;-50
2022/12/30 02:08:01;;;;;;;40.52;24.57;;;;;;;4.63;76.12;94586.44;1610440;88;21140;-44
2022/12/30 02:10:28;;;;;;;36.08;21.82;;;;;;;4.51;76.49;94584.31;1548323;91;21848;-44
2022/12/30 02:12:55;;;;;;;37.67;21.90;;;;;;;4.42;76.37;94587.38;1580036;88;21155;-44
2022/12/30 02:15:21;;;;;;;34.20;20.70;;;;;;;4.36;76.64;94589.78;1586140;88;21067;-47
2022/12/30 02:18:00;;;;;;;37.98;21.95;;;;;;;4.32;77.23;94590.42;1598578;88;21037;-44
2022/12/30 02:20:53;;;;;;;39.75;23.35;;;;;;;4.34;77.58;94582.62;1550465;90;21619;-45
2022/12/30 02:23:59;;;;;;;42.08;26.37;;;;;;;4.31;77.91;94585.38;1542344;92;21296;-45
2022/12/30 02:26:49;;;;;;;44.70;27.55;;;;;;;4.23;77.87;94584.70;1485781;95;21136;-43
2022/12/30 02:29:43;;;;;;;62.17;33.92;;;;;;;4.17;78.07;94597.25;1487896;96;21563;-44
2022/12/30 02:32:34;;;;;;;;;;;;;;;4.14;78.00;94597.28;1489732;96;21095;-45
2022/12/30 02:35:21;;;;;;;41.85;26.17;;;;;;;4.13;78.20;94598.47;1491462;96;20225;-44
2022/12/30 02:37:56;;;;;;;36.13;22.80;;;;;;;4.07;77.75;94615.08;1491505;96;21205;-44
2022/12/30 02:46:28;;;;;;;55.65;30.55;;;;;;;3.80;78.41;94619.11;1491518;96;21075;-44
2022/12/30 02:48:56;;;;;;;61.92;32.98;;;;;;;3.85;78.69;94622.73;1491834;96;21080;-45
2022/12/30 02:54:11;;;;;;;57.90;33.00;;;;;;;3.93;79.24;94633.73;1488543;96;21097;-45
2022/12/30 02:56:50;;;;;;;35.05;20.35;;;;;;;3.94;79.17;94631.77;1482173;96;21149;-44
2022/12/30 03:05:25;;;;;;;23.45;15.13;;;;;;;3.85;80.17;94639.66;1553327;92;22179;-44
2022/12/30 03:08:24;;;;;;;19.70;14.63;;;;;;;3.92;80.40;94643.64;1589497;89;21100;-45
2022/12/30 03:11:13;;;;;;;22.30;15.53;;;;;;;4.00;80.63;94645.88;1534761;93;21590;-45
2022/12/30 03:14:11;;;;;;;40.98;24.98;;;;;;;4.05;80.16;94641.34;1485651;96;21549;-44
2022/12/30 03:16:58;;;;;;;90.60;44.08;;;;;;;4.01;79.70;94641.97;1437229;99;21664;-44
2022/12/30 03:19:28;;;;;;;103.55;51.42;;;;;;;3.89;79.17;94656.70;1408820;100;21286;-44
2022/12/30 03:21:55;;;;;;;78.87;42.05;;;;;;;3.80;79.37;94650.97;1451991;97;21040;-45
2022/12/30 03:27:14;;;;;;;67.50;34.63;;;;;;;3.78;79.29;94652.75;1452236;97;21790;-46
2022/12/30 03:29:48;;;;;;;64.85;36.05;;;;;;;3.78;79.56;94660.91;1447477;97;21119;-44
2022/12/30 03:32:16;;;;;;;85.87;41.70;;;;;;;3.79;79.53;94668.47;1456834;96;21137;-44
2022/12/30 03:34:43;;;;;;;89.60;42.05;;;;;;;3.74;79.68;94665.63;1455434;96;21273;-44
2022/12/30 03:37:26;;;;;;;96.70;47.05;;;;;;;3.74;80.38;94662.12;1455741;96;21189;-45
2022/12/30 03:40:10;;;;;;;75.22;40.05;;;;;;;3.76;80.42;94657.83;1440127;97;21173;-48
2022/12/30 03:42:37;;;;;;;53.50;28.27;;;;;;;3.80;80.51;94656.41;1419624;100;21397;-44
2022/12/30 03:45:05;;;;;;;53.23;30.10;;;;;;;3.84;80.15;94663.97;1418717;100;22037;-44
2022/12/30 03:47:32;;;;;;;43.10;26.55;;;;;;;3.86;80.23;94658.28;1442708;94;21627;-43
2022/12/30 03:49:59;;;;;;;34.23;23.00;;;;;;;3.88;80.39;94666.05;1502764;93;21218;-44
2022/12/30 03:52:27;;;;;;;39.03;25.17;;;;;;;3.82;80.21;94668.44;1472412;94;21105;-44
2022/12/30 03:54:53;;;;;;;58.85;33.05;;;;;;;3.76;80.35;94673.37;1509272;92;21051;-44
2022/12/30 03:57:20;;;;;;;85.55;42.30;;;;;;;3.75;80.35;94675.33;1549893;90;21244;-44
2022/12/30 03:59:47;;;;;;;55.45;30.90;;;;;;;3.67;79.78;94668.41;1543081;92;21042;-45
2022/12/30 04:02:14;;;;;;;57.27;31.37;;;;;;;3.62;79.76;94674.30;1558900;91;21085;-44
2022/12/30 04:04:40;;;;;;;59.98;32.55;;;;;;;3.62;80.22;94671.58;1551537;90;21131;-45
2022/12/30 04:07:07;;;;;;;48.50;27.02;;;;;;;3.66;80.74;94663.39;1544347;90;21077;-44
2022/12/30 04:09:34;;;;;;;44.08;24.92;;;;;;;3.73;80.63;94667.38;1557237;85;21167;-43
2022/12/30 04:12:01;;;;;;;47.88;24.75;;;;;;;3.75;80.90;94671.25;1684020;84;21083;-44
2022/12/30 04:14:28;;;;;;;32.40;19.40;;;;;;;3.80;81.17;94667.29;1677402;84;21037;-45
2022/12/30 04:16:55;;;;;;;40.75;21.80;;;;;;;3.84;81.27;94653.84;1661392;84;21111;-44
2022/12/30 04:19:22;;;;;;;48.52;24.07;;;;;;;3.93;81.34;94667.74;1690179;84;21040;-46
2022/12/30 04:21:49;;;;;;;50.25;28.23;;;;;;;3.98;81.06;94656.41;1657720;84;21260;-43
2022/12/30 04:24:16;;;;;;;74.85;39.73;;;;;;;4.02;81.12;94662.56;1657719;84;21108;-44
2022/12/30 04:26:43;;;;;;;121.60;56.50;;;;;;;3.98;80.47;94664.56;1657778;84;21525;-44
2022/12/30 04:29:10;;;;;;;89.07;42.30;;;;;;;3.91;80.84;94659.19;1683556;84;21079;-44
2022/12/30 04:31:37;;;;;;;73.65;36.80;;;;;;;3.91;80.56;94658.43;1592465;89;21041;-44
2022/12/30 04:34:03;;;;;;;43.08;23.92;;;;;;;3.85;80.54;94662.79;1594012;88;21195;-45
2022/12/30 04:36:30;;;;;;;42.83;21.30;;;;;;;3.83;80.58;94663.78;1576106;90;21045;-43
2022/12/30 04:38:57;;;;;;;26.17;17.62;;;;;;;3.86;80.79;94665.69;1595933;86;21150;-44
2022/12/30 04:41:24;;;;;;;25.43;17.45;;;;;;;3.91;80.87;94670.67;1660315;84;21168;-44
2022/12/30 04:43:51;;;;;;;27.37;17.82;;;;;;;3.92;81.01;94667.56;1656904;84;21112;-45
2022/12/30 04:46:17;;;;;;;34.45;18.73;;;;;;;3.99;80.98;94668.83;1669944;84;21314;-45
2022/12/30 04:48:44;;;;;;;31.68;20.00;;;;;;;4.07;80.75;94670.27;1661999;84;21166;-45
2022/12/30 04:51:11;;;;;;;43.33;22.60;;;;;;;4.12;80.28;94664.98;1664858;83;21093;-45
2022/12/30 04:53:38;;;;;;;33.70;20.75;;;;;;;4.10;80.02;94661.32;1667961;84;21010;-45
2022/12/30 04:56:07;;;;;;;111.05;44.60;;;;;;;4.02;79.95;94670.73;1673741;82;20983;-46
2022/12/30 04:58:35;;;;;;;52.98;27.75;;;;;;;3.95;79.36;94669.47;1744473;81;21068;-45
2022/12/30 05:01:02;;;;;;;162.03;62.27;;;;;;;3.88;79.65;94662.73;1686330;84;21006;-45
2022/12/30 05:03:29;;;;;;;157.07;59.90;;;;;;;3.86;79.80;94669.77;1692363;83;21207;-45
2022/12/30 05:05:56;;;;;;;178.93;71.50;;;;;;;3.75;79.19;94675.33;1672123;85;21530;-45
2022/12/30 05:08:22;;;;;;;463.35;142.85;;;;;;;3.57;79.47;94681.55;1675379;84;21526;-44
2022/12/30 05:10:49;;;;;;;580.10;178.87;;;;;;;3.51;79.99;94676.34;1654433;84;21226;-45
2022/12/30 05:13:16;;;;;;;410.32;122.28;;;;;;;3.54;80.13;94680.97;1653384;84;21188;-44
2022/12/30 05:15:42;;;;;;;241.53;85.07;;;;;;;3.58;80.27;94680.37;1655009;84;20986;-45
2022/12/30 05:18:10;;;;;;;165.45;65.42;;;;;;;3.62;80.11;94674.30;1717045;81;21053;-45
2022/12/30 05:20:37;;;;;;;132.20;53.48;;;;;;;3.64;79.94;94675.23;1723311;81;21083;-44
2022/12/30 05:26:13;;;;;;;110.22;48.20;;;;;;;3.62;80.18;94679.73;1729571;81;21237;-44
2022/12/30 05:28:18;;;;;;;330.95;111.80;;;;;;;3.55;80.48;94685.23;1737829;81;20974;-45
2022/12/30 05:30:45;;;;;;;188.35;69.62;;;;;;;3.51;80.18;94688.58;1759187;80;20969;-43
2022/12/30 05:33:11;;;;;;;236.30;90.45;;;;;;;3.42;80.49;94696.27;1729634;81;21183;-44
2022/12/30 05:35:38;;;;;;;233.53;82.62;;;;;;;3.40;80.58;94701.33;1765040;80;21267;-43
2022/12/30 05:38:04;;;;;;;265.87;107.03;;;;;;;3.39;80.76;94703.87;1767105;79;21077;-45
2022/12/30 05:40:32;;;;;;;199.17;80.65;;;;;;;3.38;80.34;94702.33;1754019;80;21045;-48
2022/12/30 05:42:58;;;;;;;159.27;63.02;;;;;;;3.33;80.16;94704.09;1733824;80;21592;-46
2022/12/30 05:45:26;;;;;;;180.03;69.58;;;;;;;3.35;80.36;94713.41;1782158;80;21005;-48
2022/12/30 05:47:53;;;;;;;185.73;73.05;;;;;;;3.37;80.39;94706.19;1765347;80;21229;-49
2022/12/30 05:50:21;;;;;;;161.88;67.03;;;;;;;3.41;80.43;94705.59;1752568;80;21080;-52
2022/12/30 05:52:48;;;;;;;161.20;69.53;;;;;;;3.40;79.76;94712.97;1753054;80;20946;-45
2022/12/30 05:55:15;;;;;;;148.68;61.10;;;;;;;3.34;79.74;94711.08;1761476;80;21478;-45
2022/12/30 05:57:41;;;;;;;108.00;51.48;;;;;;;3.33;79.88;94710.31;1759321;80;21131;-45
2022/12/30 06:00:11;;;;;;;102.97;50.08;;;;;;;3.34;79.67;94714.58;1749529;80;21234;-45
2022/12/30 06:02:37;;;;;;;193.22;93.00;;;;;;;3.43;80.21;94719.55;1779312;80;21061;-44
2022/12/30 06:05:06;;;;;;;92.92;47.53;;;;;;;3.51;80.11;94728.00;1743186;80;21132;-44
2022/12/30 06:07:32;;;;;;;90.07;49.10;;;;;;;3.54;79.72;94731.88;1767177;80;21029;-46
2022/12/30 06:10:01;;;;;;;92.37;51.20;;;;;;;3.56;79.38;94735.75;1737649;80;20962;-44
2022/12/30 06:12:28;;;;;;;88.95;49.75;;;;;;;3.57;79.48;94730.50;1767069;80;22019;-45
2022/12/30 06:14:54;;;;;;;89.62;51.15;;;;;;;3.65;79.89;94726.52;1740110;80;21557;-44
2022/12/30 06:17:21;;;;;;;84.07;51.23;;;;;;;3.72;79.79;94730.52;1767340;80;21012;-45
2022/12/30 06:19:49;;;;;;;110.52;65.67;;;;;;;3.72;79.76;94738.68;1774569;79;21044;-45
2022/12/30 06:22:16;;;;;;;135.18;72.35;;;;;;;3.71;80.36;94732.30;1782677;80;21009;-45
2022/12/30 06:24:43;;;;;;;182.93;89.47;;;;;;;3.82;80.88;94737.81;1784448;79;21239;-47
2022/12/30 06:27:09;;;;;;;174.53;91.47;;;;;;;3.90;80.31;94741.24;1783571;79;21064;-44
2022/12/30 06:29:36;;;;;;;171.15;101.78;;;;;;;3.96;80.49;94737.68;1760120;78;21006;-45
2022/12/30 06:32:04;;;;;;;121.90;71.00;;;;;;;4.05;80.02;94731.16;1776639;78;21112;-46
2022/12/30 06:34:31;;;;;;;131.57;75.42;;;;;;;4.07;80.00;94734.84;1776334;78;21116;-45
2022/12/30 06:36:58;;;;;;;93.15;57.95;;;;;;;4.18;80.29;94730.81;1778419;79;21211;-45
2022/12/30 06:39:24;;;;;;;92.30;60.10;;;;;;;4.31;80.16;94737.28;1770729;79;21131;-46
2022/12/30 06:41:54;;;;;;;91.25;56.85;;;;;;;4.41;79.98;94747.27;1758353;79;21061;-45
2022/12/30 06:44:21;;;;;;;81.63;49.53;;;;;;;4.44;79.83;94738.88;1786963;79;21021;-44
2022/12/30 06:46:48;;;;;;;84.03;48.92;;;;;;;4.51;79.70;94748.31;1751687;80;21518;-45
2022/12/30 06:49:15;;;;;;;69.97;44.13;;;;;;;4.53;79.48;94743.22;1727697;81;21255;-46
2022/12/30 06:51:42;;;;;;;60.90;38.63;;;;;;;4.56;79.36;94747.85;1781817;80;21060;-44
2022/12/30 06:54:09;;;;;;;76.95;44.15;;;;;;;4.55;79.21;94748.45;1750157;80;21064;-45
2022/12/30 06:56:36;;;;;;;126.35;71.33;;;;;;;4.54;79.43;94756.45;1767182;80;21518;-44
2022/12/30 06:59:02;;;;;;;130.05;74.60;;;;;;;4.60;79.44;94758.89;1752485;79;21127;-45
2022/12/30 07:01:31;;;;;;;123.20;67.32;;;;;;;4.63;79.62;94751.26;1728783;82;21073;-45
2022/12/30 07:03:58;;;;;;;114.37;63.80;;;;;;;4.71;79.87;94754.09;1780134;79;21049;-45
2022/12/30 07:06:26;;;;;;;105.47;63.30;;;;;;;4.82;79.64;94759.40;1765533;79;21575;-46
2022/12/30 07:08:55;;;;;;;121.40;76.33;;;;;;;4.88;79.30;94757.75;1751226;79;21096;-48
2022/12/30 07:11:23;;;;;;;157.88;98.15;;;;;;;4.91;79.04;94759.07;1788630;79;21085;-46
2022/12/30 07:13:50;;;;;;;137.85;85.15;;;;;;;4.94;78.76;94754.16;1805289;78;21137;-51
2022/12/30 07:16:18;;;;;;;107.58;64.85;;;;;;;4.96;78.63;94761.94;1778428;79;20941;-46
2022/12/30 07:18:45;;;;;;;135.68;78.52;;;;;;;4.94;78.62;94754.77;1786192;79;21103;-46
2022/12/30 07:21:13;;;;;;;143.00;81.25;;;;;;;4.94;78.53;94759.61;1761273;79;21025;-48
2022/12/30 07:23:39;;;;;;;149.87;85.12;;;;;;;4.89;78.32;94762.80;1728347;79;21613;-46
2022/12/30 07:26:06;;;;;;;139.15;83.40;;;;;;;4.87;78.09;94762.44;1749459;80;21517;-50
2022/12/30 07:28:35;;;;;;;122.72;69.00;;;;;;;4.86;78.13;94764.98;1779382;79;21072;-54
2022/12/30 07:31:03;;;;;;;141.55;84.10;;;;;;;4.93;78.67;94775.78;1769415;80;21031;-47
2022/12/30 07:33:31;;;;;;;131.52;77.40;;;;;;;5.01;78.78;94769.04;1771971;79;21657;-48
2022/12/30 07:36:00;;;;;;;221.43;112.37;;;;;;;5.06;78.40;94768.59;1791927;79;21013;-47
2022/12/30 07:38:26;;;;;;;182.07;94.72;;;;;;;5.12;78.50;94771.03;1802818;78;21099;-47
2022/12/30 07:40:53;;;;;;;181.55;98.35;;;;;;;5.27;78.67;94769.05;1782522;79;21111;-49
2022/12/30 07:43:22;;;;;;;182.93;102.02;;;;;;;5.48;78.78;94763.86;1770323;78;21180;-48
2022/12/30 07:45:49;;;;;;;244.77;112.30;;;;;;;5.69;78.31;94766.24;1726919;82;21269;-47
2022/12/30 07:48:16;;;;;;;164.55;88.27;;;;;;;5.82;78.13;94763.14;1722481;82;21115;-45
2022/12/30 07:50:44;;;;;;;132.90;73.62;;;;;;;5.91;77.64;94763.36;1710445;81;22762;-48
2022/12/30 07:53:10;;;;;;;123.95;66.72;;;;;;;5.98;77.73;94766.73;1701238;83;21072;-44
2022/12/30 07:55:40;;;;;;;99.37;58.08;;;;;;;6.17;77.52;94776.92;1669940;84;21117;-46
2022/12/30 07:58:07;;;;;;;86.12;53.78;;;;;;;6.35;77.45;94771.91;1701919;82;21146;-47
2022/12/30 08:00:38;;;;;;;89.28;55.28;;;;;;;6.61;77.37;94777.06;1706715;82;21085;-53
2022/12/30 08:03:06;;;;;;;84.13;53.08;;;;;;;6.83;77.11;94776.80;1670347;83;21171;-48
2022/12/30 08:05:33;;;;;;;84.47;51.42;;;;;;;6.97;76.61;94781.98;1652962;83;21073;-49
2022/12/30 08:08:00;;;;;;;107.10;58.10;;;;;;;7.06;76.33;94782.95;1679008;83;21275;-50
2022/12/30 08:10:27;;;;;;;77.90;48.02;;;;;;;7.15;76.02;94792.73;1683777;83;21161;-44
2022/12/30 08:12:54;;;;;;;90.65;50.23;;;;;;;7.27;75.63;94788.74;1733027;81;21065;-45
2022/12/30 08:15:21;;;;;;;63.28;40.65;;;;;;;7.45;75.00;94783.64;1727420;81;21553;-46
2022/12/30 08:17:48;;;;;;;63.20;38.23;;;;;;;7.60;74.70;94788.18;1733827;81;21206;-47
2022/12/30 08:20:15;;;;;;;76.00;46.53;;;;;;;7.78;74.42;94776.21;1731601;80;21270;-47
2022/12/30 08:22:42;;;;;;;67.58;43.08;;;;;;;8.06;74.13;94776.89;1747704;80;21036;-44
2022/12/30 08:25:09;;;;;;;65.10;38.48;;;;;;;8.36;73.26;94788.84;1714958;81;21805;-45
2022/12/30 08:27:36;;;;;;;66.60;41.55;;;;;;;8.56;72.21;94798.48;1713276;82;21209;-43
2022/12/30 08:30:05;;;;;;;75.52;45.88;;;;;;;8.74;71.33;94801.52;1700710;81;21155;-46
2022/12/30 08:32:31;;;;;;;76.30;46.58;;;;;;;8.86;70.03;94806.28;1693039;82;21063;-45
2022/12/30 08:34:58;;;;;;;31.42;20.82;;;;;;;8.90;69.63;94800.09;1720737;81;21632;-45
2022/12/30 08:37:25;;;;;;;22.22;14.73;;;;;;;9.04;68.21;94803.20;1720864;81;21405;-45
2022/12/30 08:39:53;;;;;;;17.98;11.30;;;;;;;9.25;67.29;94790.84;1698482;81;21210;-46
2022/12/30 08:42:21;;;;;;;13.35;10.30;;;;;;;9.52;66.01;94784.31;1692902;83;21173;-45
2022/12/30 08:44:48;;;;;;;16.70;11.30;;;;;;;9.79;65.27;94786.03;1723621;81;21255;-43
2022/12/30 08:47:23;;;;;;;13.53;9.83;;;;;;;10.06;64.33;94795.97;1736550;81;21124;-46
2022/12/30 08:49:50;;;;;;;13.58;10.95;;;;;;;10.30;63.24;94785.53;1662559;84;21176;-44
2022/12/30 08:52:18;;;;;;;14.93;11.05;;;;;;;10.49;62.04;94787.85;1675373;82;21126;-45
2022/12/30 08:54:45;;;;;;;12.28;9.68;;;;;;;10.62;61.65;94781.09;1693469;82;21158;-45
2022/12/30 08:57:12;;;;;;;9.13;7.80;;;;;;;10.72;60.66;94782.68;1698983;82;21094;-45
2022/12/30 08:59:40;;;;;;;13.70;10.05;;;;;;;10.69;60.42;94773.20;1709962;82;21088;-46
2022/12/30 09:02:11;;;;;;;20.52;14.90;;;;;;;10.60;60.03;94780.77;1638397;85;21614;-45
2022/12/30 09:04:38;;;;;;;13.28;10.03;;;;;;;10.51;60.14;94783.42;1658673;84;21290;-45
2022/12/30 09:07:07;;;;;;;11.20;9.10;;;;;;;10.48;60.21;94788.45;1698699;83;21029;-46
2022/12/30 09:09:36;;;;;;;12.70;9.00;;;;;;;10.46;60.17;94783.22;1704645;83;21123;-45
2022/12/30 09:12:04;;;;;;;11.55;9.13;;;;;;;10.42;59.98;94782.58;1678625;82;21205;-45
2022/12/30 09:14:31;;;;;;;14.00;8.70;;;;;;;10.42;60.10;94785.33;1685743;82;21615;-43
2022/12/30 09:16:58;;;;;;;14.58;8.70;;;;;;;10.38;60.23;94780.56;1692907;83;22020;-45
2022/12/30 09:19:26;;;;;;;14.10;9.90;;;;;;;10.40;60.35;94775.38;1673841;83;21129;-45
2022/12/30 09:21:53;;;;;;;12.55;9.23;;;;;;;10.47;60.30;94776.50;1716791;81;21632;-46
2022/12/30 09:24:20;;;;;;;17.30;11.20;;;;;;;10.52;60.08;94770.45;1728130;81;21104;-43
2022/12/30 09:26:47;;;;;;;13.45;9.70;;;;;;;10.61;60.09;94773.27;1702440;81;21583;-44
2022/12/30 09:29:39;;;;;;;19.70;11.75;;;;;;;10.64;59.82;94766.87;1691570;82;21425;-42
2022/12/30 09:32:26;;;;;;;12.58;10.23;;;;;;;10.68;59.81;94762.03;1704496;81;21095;-46
2022/12/30 09:34:57;;;;;;;17.10;11.68;;;;;;;10.82;59.82;94758.16;1725215;81;20972;-44
2022/12/30 09:37:28;;;;;;;17.48;10.00;;;;;;;10.96;59.25;94755.65;1719850;82;21112;-43
2022/12/30 09:40:16;;;;;;;17.05;10.45;;;;;;;11.10;59.14;94751.59;1719970;82;21095;-45
2022/12/30 09:48:40;;;;;;;;;;;;;;;;;;;;;
2022/12/30 09:51:08;;;;;;;17.42;12.33;;;;;;;11.84;57.74;94737.90;1686089;82;21387;-45
2022/12/30 09:53:59;;;;;;;14.98;7.90;;;;;;;12.03;57.05;94738.09;1677746;84;21094;-42
2022/12/30 09:56:37;;;;;;;18.15;10.35;;;;;;;12.17;56.38;94734.77;1661243;85;22019;-43
2022/12/30 09:59:13;;;;;;;11.15;7.70;;;;;;;12.31;56.12;94724.52;1605921;87;21183;-44
2022/12/30 10:01:44;;;;;;;11.53;8.05;;;;;;;12.34;55.35;94733.26;1541852;89;21152;-44
2022/12/30 10:04:19;;;;;;;16.95;10.28;;;;;;;12.30;55.35;94728.48;1550250;89;21200;-47
2022/12/30 10:07:04;;;;;;;14.45;9.20;;;;;;;12.37;55.42;94723.28;1519993;91;21688;-47
2022/12/30 10:10:07;;;;;;;13.35;8.95;;;;;;;12.57;54.90;94722.36;1559948;89;21213;-44
2022/12/30 10:13:29;;;;;;;14.58;9.00;;;;;;;12.94;54.40;94724.53;1515124;92;21142;-43
2022/12/30 10:16:08;;;;;;;7.53;6.30;;;;;;;13.34;53.66;94723.07;1504758;92;21212;-43
2022/12/30 10:19:04;;;;;;;8.10;5.40;;;;;;;13.68;52.62;94726.79;1495676;94;21082;-43
2022/12/30 10:21:45;;;;;;;5.00;4.45;;;;;;;13.75;52.18;94721.52;1486343;94;21647;-44
2022/12/30 10:24:36;;;;;;;16.95;6.12;;;;;;;13.60;52.15;94717.92;1443860;96;21369;-43
2022/12/30 10:27:24;;;;;;;14.85;7.53;;;;;;;13.43;52.61;94709.84;1434327;96;21142;-47
2022/12/30 10:29:52;;;;;;;12.45;9.58;;;;;;;13.27;52.85;94708.18;1419431;98;21182;-46
2022/12/30 10:32:21;;;;;;;9.80;8.30;;;;;;;13.18;53.10;94715.12;1394201;100;21222;-46
2022/12/30 10:34:58;;;;;;;11.03;5.72;;;;;;;13.19;53.24;94706.98;1395887;100;21419;-44
2022/12/30 10:37:33;;;;;;;17.60;4.95;;;;;;;13.21;52.86;94707.89;1418009;99;21971;-46
2022/12/30 10:40:11;;;;;;;6.60;5.80;;;;;;;13.12;52.92;94705.16;1434915;97;21127;-45
2022/12/30 10:43:12;;;;;;;12.10;4.42;;;;;;;13.07;52.97;94703.78;1368918;101;21337;-44
2022/12/30 10:45:47;;;;;;;7.22;5.90;;;;;;;13.11;52.77;94706.39;1349122;103;21263;-45
2022/12/30 10:48:50;;;;;;;12.82;10.50;;;;;;;13.18;52.35;94709.59;1349746;103;21191;-46
2022/12/30 10:51:17;;;;;;;8.08;7.10;;;;;;;13.17;52.00;94694.26;1336108;104;21826;-45
2022/12/30 10:53:45;;;;;;;10.40;6.35;;;;;;;13.30;51.68;94699.59;1321644;107;21280;-46
2022/12/30 10:56:18;;;;;;;10.82;7.85;;;;;;;13.62;51.07;94686.42;1351071;101;21808;-46
2022/12/30 10:58:51;;;;;;;;;;;;;;;14.29;50.38;94681.13;1386611;102;21425;-49
2022/12/30 11:01:21;;;;;;;;;;;;;;;15.11;48.64;94681.31;1398708;99;20216;-44
2022/12/30 11:03:53;;;;;;;16.12;7.33;;;;;;;15.41;46.48;94680.88;1395627;99;21349;-45
2022/12/30 11:06:33;;;;;;;8.68;5.95;;;;;;;15.25;46.80;94668.86;1379947;102;21482;-45
2022/12/30 11:09:16;;;;;;;14.70;5.77;;;;;;;15.07;47.04;94669.05;1390213;100;21220;-44
2022/12/30 11:14:44;;;;;;;24.12;10.98;;;;;;;15.31;46.13;94673.13;1399751;99;21656;-50
2022/12/30 11:17:24;;;;;;;12.28;8.58;;;;;;;15.15;46.22;94663.90;1374990;102;21722;-46
2022/12/30 11:20:27;;;;;;;15.90;9.90;;;;;;;14.84;46.98;94671.27;1380211;101;21611;-50
2022/12/30 11:22:55;;;;;;;21.07;11.70;;;;;;;14.52;47.42;94663.88;1367201;102;21220;-47
2022/12/30 11:25:34;;;;;;;35.25;19.27;;;;;;;14.32;48.09;94670.52;1353653;103;22567;-46
2022/12/30 11:28:07;;;;;;;17.37;12.33;;;;;;;14.15;48.59;94670.76;1367867;102;21210;-46
2022/12/30 11:30:42;;;;;;;16.12;8.15;;;;;;;14.12;48.63;94667.52;1396783;100;21247;-45
2022/12/30 11:33:20;;;;;;;15.90;7.17;;;;;;;14.12;48.86;94679.97;1395301;100;21168;-46
2022/12/30 11:35:53;;;;;;;26.65;23.57;;;;;;;13.99;48.95;94684.99;1345085;104;21229;-50
2022/12/30 11:38:35;;;;;;;15.85;12.33;;;;;;;13.84;49.27;94683.52;1342119;104;21281;-48
2022/12/30 11:41:20;;;;;;;16.23;8.05;;;;;;;13.68;49.73;94685.92;1328803;104;22786;-48
2022/12/30 11:44:05;;;;;;;20.25;14.68;;;;;;;13.59;50.38;94692.89;1315656;106;21359;-48
2022/12/30 11:46:45;;;;;;;13.13;10.70;;;;;;;13.45;50.38;94690.80;1365708;101;21696;-47
2022/12/30 11:49:46;;;;;;;12.43;10.10;;;;;;;13.23;51.12;94683.35;1357967;102;21173;-48
2022/12/30 11:52:21;;;;;;;11.10;9.33;;;;;;;13.08;51.58;94692.13;1352714;104;21266;-46
2022/12/30 11:57:42;;;;;;;;;;;;;;;12.82;52.67;94690.91;1312864;107;21265;-47
2022/12/30 12:00:21;;;;;;;7.95;6.95;;;;;;;12.69;53.18;94701.38;1336728;100;20286;-46
2022/12/30 12:02:50;;;;;;;16.85;10.25;;;;;;;12.60;53.38;94697.23;1339252;103;21186;-45
2022/12/30 12:05:30;;;;;;;10.80;8.55;;;;;;;12.54;53.73;94714.25;1347680;102;21770;-45
2022/12/30 12:08:20;;;;;;;17.80;7.55;;;;;;;12.50;54.11;94708.13;1377878;101;21783;-48
2022/12/30 12:11:01;;;;;;;9.28;6.25;;;;;;;12.46;54.29;94707.50;1354160;103;21347;-47
2022/12/30 12:14:05;;;;;;;14.28;8.75;;;;;;;12.38;54.65;94716.53;1350203;104;21254;-46
2022/12/30 12:17:03;;;;;;;13.05;8.73;;;;;;;12.33;54.88;94716.55;1301600;106;21553;-47
2022/12/30 12:19:42;;;;;;;8.15;7.30;;;;;;;12.21;55.32;94715.29;1297271;108;21722;-45
2022/12/30 12:22:30;;;;;;;13.55;9.95;;;;;;;12.07;55.82;94726.94;1304043;107;21269;-49
2022/12/30 12:25:05;;;;;;;9.88;6.12;;;;;;;11.87;56.29;94728.72;1280203;108;21445;-47
2022/12/30 12:27:33;;;;;;;11.00;4.92;;;;;;;11.72;56.97;94723.61;1269777;109;21775;-46
2022/12/30 12:30:00;;;;;;;7.65;5.92;;;;;;;11.60;57.34;94714.08;1272556;110;21381;-45
2022/12/30 12:33:02;;;;;;;20.62;6.85;;;;;;;11.46;57.80;94719.52;1278072;109;21439;-45
2022/12/30 12:35:48;;;;;;;9.78;7.75;;;;;;;11.39;58.06;94716.27;1293209;108;21160;-48
2022/12/30 12:38:37;;;;;;;8.63;7.20;;;;;;;11.33;58.43;94720.84;1316444;105;21441;-46
2022/12/30 12:41:33;;;;;;;18.73;8.77;;;;;;;11.31;58.63;94713.64;1298715;107;21762;-44
2022/12/30 12:44:22;;;;;;;20.92;11.50;;;;;;;11.28;59.01;94713.93;1325555;105;21183;-46
2022/12/30 12:47:12;;;;;;;33.08;24.10;;;;;;;11.24;59.26;94711.14;1320499;106;21271;-46
2022/12/30 12:49:53;;;;;;;25.45;16.27;;;;;;;11.19;59.72;94728.27;1319719;106;21188;-46
2022/12/30 12:52:47;;;;;;;25.32;17.82;;;;;;;11.11;60.03;94734.64;1320984;104;21248;-45